METAR/TAF

Belfast City Airport
BELFAST HARBOUR
Metar
EGAC 210720Z AUTO 17009KT 9999 BKN018/// 13/10 Q1015

07:20 UTC

Wind: 170° 9kt

Visibility: 9999 m

Sky: BKN 1800 ft

Temp: 13 deg C / 55.4 deg F

Dewpoint: 10 deg C / 50 deg F

Pressure: 1015 hPa

TAF
TAF EGAC 210624Z 2106/2115 19012KT 9999 BKN014 BECMG 2106/2110 FEW014 BKN025
Belfast International Airport
BELFAST/ALDERGRO
Metar
EGAA 210720Z 19009KT 9999 BKN017 12/10 Q1015

07:20 UTC

Wind: 190° 9kt

Visibility: 9999 m

Sky: BKN 1700 ft

Temp: 12 deg C / 53.6 deg F

Dewpoint: 10 deg C / 50 deg F

Pressure: 1015 hPa

TAF
TAF EGAA 210452Z 2106/2206 19012KT 9999 BKN012 BECMG 2106/2110 BKN025 PROB30 TEMPO 2117/2122 BKN014 BECMG 2122/2124 16015G25KT CAVOK PROB30 TEMPO 2202/2206 17020G35KT
Print Friendly, PDF & Email